createdAt,value
2018-09-14T06:08:07.493Z,19.00
2018-09-14T06:10:37.179Z,19.80
2018-09-14T06:13:07.230Z,20.20
2018-09-14T06:15:37.072Z,19.93
2018-09-14T06:18:07.018Z,19.53
2018-09-14T06:20:36.717Z,19.70
2018-09-14T06:23:06.625Z,19.17
2018-09-14T06:25:40.611Z,19.33
2018-09-14T06:28:10.313Z,17.93
2018-09-14T06:30:40.158Z,18.50
2018-09-14T06:33:10.745Z,18.90
2018-09-14T06:35:40.669Z,20.20
2018-09-14T06:38:10.434Z,19.87
2018-09-14T06:40:40.264Z,20.10
2018-09-14T06:43:10.065Z,21.00
2018-09-14T06:45:39.920Z,20.90
2018-09-14T06:48:09.572Z,19.27
2018-09-14T06:50:39.248Z,17.87
2018-09-14T06:53:09.103Z,20.60
2018-09-14T06:55:38.954Z,22.90
2018-09-14T06:58:08.706Z,24.47
2018-09-14T07:00:38.369Z,23.23
2018-09-14T07:03:08.186Z,23.63
2018-09-14T07:05:41.973Z,24.33
2018-09-14T07:08:11.726Z,23.80
2018-09-14T07:10:41.432Z,24.40
2018-09-14T07:13:11.715Z,23.57
2018-09-14T07:15:41.528Z,23.57
2018-09-14T07:18:11.349Z,23.47
2018-09-14T07:20:40.956Z,23.50
2018-09-14T07:23:10.643Z,23.50
2018-09-14T07:25:40.327Z,22.93
2018-09-14T07:28:10.080Z,23.77
2018-09-14T07:30:39.723Z,24.40
2018-09-14T07:33:09.345Z,24.57
2018-09-14T07:35:38.982Z,25.13
2018-09-14T07:38:08.596Z,24.27
2018-09-14T07:40:38.307Z,24.80
2018-09-14T07:43:07.676Z,25.80
2018-09-14T07:45:37.328Z,24.53
2018-09-14T07:48:07.232Z,26.80
2018-09-14T07:50:36.886Z,25.60
2018-09-14T07:53:06.616Z,26.63
2018-09-14T07:55:36.405Z,25.30
2018-09-14T07:58:06.108Z,25.13
2018-09-14T08:00:35.791Z,25.90
2018-09-14T08:03:05.630Z,22.87
2018-09-14T08:05:35.338Z,24.27
2018-09-14T08:08:05.069Z,24.63
2018-09-14T08:10:35.098Z,23.13
2018-09-14T08:13:04.853Z,23.37
2018-09-14T08:15:34.500Z,23.80
2018-09-14T08:18:04.278Z,24.37
2018-09-14T08:20:34.092Z,25.27
2018-09-14T08:23:03.876Z,24.20
2018-09-14T08:25:33.543Z,24.13
2018-09-14T08:28:03.296Z,26.60
2018-09-14T08:30:33.103Z,27.23
2018-09-14T08:33:02.839Z,25.53
2018-09-14T08:35:32.602Z,25.73
2018-09-14T08:38:02.507Z,26.90
2018-09-14T08:40:32.235Z,25.87
2018-09-14T08:43:01.959Z,25.50
2018-09-14T08:45:31.659Z,26.07
2018-09-14T08:48:01.444Z,27.23
2018-09-14T08:50:31.083Z,26.73
2018-09-14T08:53:00.773Z,29.37
2018-09-14T08:55:30.564Z,27.27
2018-09-14T08:58:00.327Z,27.23
2018-09-14T09:00:30.033Z,28.67
2018-09-14T09:02:59.835Z,29.00
2018-09-14T09:05:29.560Z,27.77
2018-09-14T09:08:03.754Z,29.17
2018-09-14T09:10:34.173Z,26.90
2018-09-14T09:13:03.919Z,27.70
2018-09-14T09:15:33.614Z,28.23
2018-09-14T09:18:03.325Z,27.90
2018-09-14T09:20:37.290Z,27.83
2018-09-14T09:23:07.077Z,29.67
2018-09-14T09:25:36.811Z,28.17
2018-09-14T09:28:06.868Z,30.10
2018-09-14T09:30:36.657Z,31.27
2018-09-14T09:33:07.260Z,29.43
2018-09-14T09:35:37.047Z,28.83
2018-09-14T09:38:06.777Z,31.80
2018-09-14T09:40:36.487Z,32.60
2018-09-14T09:43:06.267Z,32.17
2018-09-14T09:45:35.925Z,33.47
2018-09-14T09:48:05.631Z,31.33
2018-09-14T09:50:35.335Z,31.70
2018-09-14T09:53:06.437Z,32.13
2018-09-14T09:55:36.665Z,32.33
2018-09-14T09:58:06.907Z,34.87
2018-09-14T10:01:46.204Z,35.17
2018-09-14T10:04:21.259Z,36.73
2018-09-14T10:06:51.042Z,35.97
2018-09-14T10:09:20.760Z,36.40
2018-09-14T10:11:50.675Z,36.27
2018-09-14T10:14:20.450Z,36.80
2018-09-14T10:16:50.155Z,36.83
2018-09-14T10:19:19.849Z,38.77
2018-09-14T10:21:49.621Z,38.97
2018-09-14T10:24:19.275Z,38.53
2018-09-14T10:26:48.987Z,39.13
2018-09-14T10:29:18.731Z,36.47
2018-09-14T10:31:48.493Z,38.60
2018-09-14T10:34:18.215Z,40.53
2018-09-14T10:36:47.962Z,37.33
2018-09-14T10:39:17.792Z,41.07
2018-09-14T10:41:47.455Z,39.23
2018-09-14T10:44:17.202Z,38.00
2018-09-14T10:46:46.956Z,38.53
2018-09-14T10:49:16.644Z,38.13
2018-09-14T10:51:46.375Z,38.33
2018-09-14T10:54:16.098Z,37.50
2018-09-14T10:56:45.961Z,36.70
2018-09-14T10:59:15.677Z,37.23
2018-09-14T11:01:45.384Z,37.23
2018-09-14T11:04:15.130Z,35.57
2018-09-14T11:06:44.789Z,32.27
2018-09-14T11:09:18.888Z,33.63
2018-09-14T11:11:48.536Z,32.37
2018-09-14T11:14:18.251Z,33.50
2018-09-14T11:16:47.974Z,32.10
2018-09-14T11:19:17.809Z,29.60
2018-09-14T11:21:47.504Z,32.53
2018-09-14T11:24:17.204Z,31.47
2018-09-14T11:26:47.928Z,30.40
2018-09-14T11:29:24.400Z,27.50
2018-09-14T11:31:54.151Z,23.97
2018-09-14T11:34:28.205Z,22.97
2018-09-14T11:36:57.965Z,18.40
2018-09-14T11:39:27.704Z,21.03
2018-09-14T11:41:57.565Z,21.03
2018-09-14T11:44:27.564Z,17.73
2018-09-14T11:46:57.192Z,17.40
2018-09-14T11:49:27.021Z,15.90
2018-09-14T11:51:56.676Z,6.30
2018-09-14T11:54:27.434Z,6.80
2018-09-14T11:56:57.249Z,11.97
2018-09-14T11:59:27.068Z,10.70
2018-09-14T12:01:56.801Z,11.90
2018-09-14T12:04:26.647Z,13.17
2018-09-14T12:06:56.366Z,12.93
2018-09-14T12:09:26.317Z,10.00
2018-09-14T12:11:56.041Z,10.40
2018-09-14T12:14:25.784Z,9.30
2018-09-14T12:16:55.526Z,11.90
2018-09-14T12:19:26.070Z,11.97
2018-09-14T12:21:55.789Z,12.27
2018-09-14T12:24:25.474Z,13.63
2018-09-14T12:26:55.195Z,14.30
2018-09-14T12:29:24.919Z,14.93
2018-09-14T12:31:54.646Z,15.87
2018-09-14T12:34:24.359Z,16.20
2018-09-14T12:36:54.119Z,17.40
2018-09-14T12:39:23.907Z,18.93
2018-09-14T12:41:53.619Z,17.00
2018-09-14T12:44:23.582Z,17.50
2018-09-14T12:46:53.309Z,19.43
2018-09-14T12:49:23.043Z,18.43
2018-09-14T12:51:57.379Z,19.33
2018-09-14T12:54:27.175Z,20.00
2018-09-14T12:56:57.117Z,21.00
2018-09-14T12:59:26.779Z,20.63
2018-09-14T13:01:56.611Z,20.40
2018-09-14T13:04:26.400Z,19.83
2018-09-14T13:06:56.025Z,20.03
2018-09-14T13:09:25.831Z,21.00
2018-09-14T13:11:55.681Z,20.47
2018-09-14T13:14:25.547Z,20.70
2018-09-14T13:16:55.247Z,21.07
2018-09-14T13:19:24.921Z,21.23
2018-09-14T13:21:54.660Z,20.13
2018-09-14T13:24:24.856Z,20.80
2018-09-14T13:26:54.568Z,18.80
2018-09-14T13:29:24.452Z,18.10
2018-09-14T13:31:54.156Z,17.23
2018-09-14T13:34:23.943Z,16.23
2018-09-14T13:36:53.658Z,16.77
2018-09-14T13:39:23.369Z,17.13
2018-09-14T13:41:53.136Z,18.10
2018-09-14T13:44:22.864Z,17.53
2018-09-14T13:46:52.589Z,17.20
2018-09-14T13:49:22.420Z,19.13
2018-09-14T13:51:52.135Z,19.33
2018-09-14T13:54:21.819Z,17.67
2018-09-14T13:56:51.556Z,18.43
2018-09-14T13:59:21.230Z,17.27
2018-09-14T14:01:50.913Z,18.13
2018-09-14T14:04:20.664Z,16.83
2018-09-14T14:06:50.504Z,16.77
2018-09-14T14:09:20.206Z,17.57
2018-09-14T14:11:49.908Z,17.97
2018-09-14T14:14:19.630Z,17.50
2018-09-14T14:16:49.411Z,15.27
2018-09-14T14:19:19.198Z,16.03
2018-09-14T14:21:48.996Z,16.60
2018-09-14T14:24:18.805Z,15.83
2018-09-14T14:26:48.707Z,14.10
2018-09-14T14:29:19.130Z,15.83
2018-09-14T14:31:48.993Z,14.43
2018-09-14T14:34:18.723Z,14.70
2018-09-14T14:41:43.372Z,13.33
2018-09-14T14:44:13.792Z,12.43
2018-09-14T14:46:43.750Z,12.33
2018-09-14T14:49:13.850Z,12.37
2018-09-14T14:51:43.871Z,12.60
2018-09-14T14:54:13.679Z,12.90
2018-09-14T14:56:43.573Z,12.27
2018-09-14T14:59:13.509Z,11.40
2018-09-14T15:01:43.339Z,11.37
2018-09-14T15:04:13.855Z,12.00
2018-09-14T15:06:43.703Z,11.70
2018-09-14T15:09:14.515Z,11.73
2018-09-14T15:11:44.305Z,12.40
2018-09-14T15:14:14.022Z,11.43
2018-09-14T15:16:43.800Z,11.40
2018-09-14T15:19:13.574Z,10.50
2018-09-14T15:21:43.494Z,11.30
2018-09-14T15:24:13.389Z,11.43
2018-09-14T15:26:43.305Z,12.37
2018-09-14T15:29:13.248Z,12.20
2018-09-14T15:31:43.423Z,12.33
2018-09-14T15:34:13.498Z,12.00
2018-09-14T15:36:43.325Z,12.70
2018-09-14T15:39:13.871Z,11.53
2018-09-14T15:41:43.767Z,12.73
2018-09-14T15:44:13.524Z,12.57
2018-09-14T15:46:43.357Z,12.57
2018-09-14T15:49:13.334Z,12.50
2018-09-14T15:51:43.111Z,12.10
2018-09-14T15:54:12.872Z,12.97
2018-09-14T15:56:42.683Z,14.03
2018-09-14T15:59:12.577Z,12.40
2018-09-14T16:01:42.353Z,12.10
2018-09-14T16:04:12.008Z,12.00
2018-09-14T16:06:41.846Z,11.50
2018-09-14T16:09:12.096Z,12.37
2018-09-14T16:11:41.825Z,12.87
2018-09-14T16:14:11.563Z,12.77
2018-09-14T16:16:41.392Z,11.83
2018-09-14T16:19:11.335Z,11.30
2018-09-14T16:21:41.127Z,12.57
2018-09-14T16:24:11.042Z,12.03
2018-09-14T16:26:41.075Z,12.63
2018-09-14T16:29:15.517Z,11.17
2018-09-14T16:31:45.538Z,11.10
2018-09-14T16:34:15.393Z,12.23
2018-09-14T16:36:45.311Z,12.87
2018-09-14T16:39:15.080Z,12.60
2018-09-14T16:41:45.045Z,12.17
2018-09-14T16:44:14.865Z,11.33
2018-09-14T16:46:44.776Z,12.07
2018-09-14T16:49:14.584Z,11.97
2018-09-14T16:51:44.493Z,11.50
2018-09-14T16:54:14.163Z,11.03
2018-09-14T16:56:43.926Z,12.00
2018-09-14T16:59:13.973Z,11.67
2018-09-14T17:01:43.832Z,12.03
2018-09-14T17:04:13.622Z,11.50
2018-09-14T17:06:43.628Z,11.93
2018-09-14T17:09:16.262Z,11.67
2018-09-14T17:11:46.411Z,11.30
2018-09-14T17:14:16.274Z,13.70
2018-09-14T17:16:47.127Z,11.83
2018-09-14T17:19:16.864Z,11.73
2018-09-14T17:21:47.192Z,10.80
2018-09-14T17:24:17.197Z,11.67
2018-09-14T17:26:47.272Z,11.33
2018-09-14T17:29:17.107Z,11.37
2018-09-14T17:31:47.153Z,10.93
2018-09-14T17:34:16.943Z,11.50
2018-09-14T17:36:47.259Z,11.17
2018-09-14T17:39:17.057Z,10.07
2018-09-14T17:41:46.929Z,19.97
2018-09-14T17:44:16.755Z,11.43
2018-09-14T17:46:46.537Z,10.33
2018-09-14T17:49:16.301Z,11.37
2018-09-14T17:51:46.201Z,11.50
2018-09-14T17:54:15.927Z,12.53
2018-09-14T17:56:45.899Z,11.33
2018-09-14T17:59:15.619Z,11.23
2018-09-14T18:01:45.499Z,12.50
2018-09-14T18:04:15.255Z,12.00
2018-09-14T18:06:45.025Z,11.87
2018-09-14T18:09:14.833Z,13.47
2018-09-14T18:11:44.547Z,11.90
2018-09-14T18:14:14.217Z,11.47
2018-09-14T18:16:43.961Z,11.47
2018-09-14T18:19:13.751Z,10.10
2018-09-14T18:21:43.495Z,10.10
2018-09-14T18:24:13.178Z,9.93
2018-09-14T18:26:42.844Z,10.07
2018-09-14T18:29:12.580Z,9.40
2018-09-14T18:31:42.316Z,10.03
2018-09-14T18:34:12.064Z,9.60
2018-09-14T18:36:42.046Z,9.23
2018-09-14T18:39:13.292Z,10.13
2018-09-14T18:41:43.022Z,9.80
2018-09-14T18:44:12.720Z,12.03
2018-09-14T18:46:46.901Z,10.37
2018-09-14T18:49:16.842Z,12.07
2018-09-14T18:51:46.697Z,14.67
2018-09-14T18:54:16.428Z,13.77
2018-09-14T18:56:46.334Z,10.20
2018-09-14T18:59:16.081Z,9.43
2018-09-14T19:01:45.933Z,8.97
2018-09-14T19:04:16.663Z,8.93
2018-09-14T19:06:46.413Z,9.37
2018-09-14T19:09:16.318Z,9.00
2018-09-14T19:11:46.094Z,8.23
2018-09-14T19:14:15.881Z,10.13
2018-09-14T19:16:45.701Z,10.90
2018-09-14T19:19:15.511Z,12.00
2018-09-14T19:21:45.285Z,11.87
2018-09-14T19:24:15.024Z,14.47
2018-09-14T19:26:44.830Z,11.53
2018-09-14T19:29:14.450Z,12.50
2018-09-14T19:31:44.298Z,14.80
2018-09-14T19:34:14.094Z,13.37
2018-09-14T19:36:43.925Z,12.93
2018-09-14T19:39:14.324Z,13.80
2018-09-14T19:41:44.154Z,13.80
2018-09-14T19:44:13.889Z,11.97
2018-09-14T19:46:43.765Z,12.70
2018-09-14T19:49:13.588Z,13.47
2018-09-14T19:51:43.302Z,15.20
2018-09-14T19:54:13.054Z,13.90
2018-09-14T19:56:42.786Z,14.10
2018-09-14T19:59:12.533Z,11.60
2018-09-14T20:01:42.388Z,11.03
2018-09-14T20:04:12.133Z,11.80
2018-09-14T20:06:41.844Z,13.03
2018-09-14T20:09:13.876Z,12.43
2018-09-14T20:11:44.384Z,12.17
2018-09-14T20:14:14.110Z,12.27
2018-09-14T20:16:52.157Z,12.47
2018-09-14T20:19:21.920Z,12.10
2018-09-14T20:21:51.770Z,11.97
2018-09-14T20:24:23.661Z,11.23
2018-09-14T20:26:53.412Z,11.70
2018-09-14T20:29:23.209Z,11.57
2018-09-14T20:31:52.920Z,12.97
2018-09-14T20:34:22.689Z,17.50
2018-09-14T20:36:52.453Z,21.10
2018-09-14T20:39:22.164Z,17.03
2018-09-14T20:41:51.991Z,13.37
2018-09-14T20:44:21.713Z,12.87
2018-09-14T20:46:51.530Z,12.80
2018-09-14T20:51:50.667Z,12.63
2018-09-14T20:54:20.489Z,12.30
2018-09-14T20:56:50.316Z,11.90
2018-09-14T20:59:20.063Z,12.37
2018-09-14T21:01:49.968Z,12.30
2018-09-14T21:04:19.683Z,12.60
2018-09-14T21:06:49.451Z,11.70
2018-09-14T21:09:19.364Z,11.27
2018-09-14T21:11:49.070Z,11.27
2018-09-14T21:14:18.828Z,12.73
2018-09-14T21:16:48.809Z,12.80
2018-09-14T21:19:18.684Z,13.50
2018-09-14T21:21:49.225Z,13.77
2018-09-14T21:24:19.124Z,13.50
2018-09-14T21:26:49.680Z,14.27
2018-09-14T21:29:19.434Z,16.47
2018-09-14T21:31:49.456Z,15.23
2018-09-14T21:34:19.347Z,13.30
2018-09-14T21:36:49.202Z,14.00
2018-09-14T21:39:19.075Z,11.33
2018-09-14T21:41:48.812Z,12.03
2018-09-14T21:44:18.475Z,12.27
2018-09-14T21:46:48.196Z,12.43
2018-09-14T21:49:18.040Z,11.40
2018-09-14T21:51:52.269Z,12.13
2018-09-14T21:54:21.941Z,12.73
2018-09-14T21:56:51.589Z,12.13
2018-09-14T21:59:21.358Z,12.20
2018-09-14T22:01:51.436Z,12.13
2018-09-14T22:04:21.153Z,11.87
2018-09-14T22:06:51.011Z,12.30
2018-09-14T22:09:21.751Z,12.33
2018-09-14T22:11:51.432Z,11.70
2018-09-14T22:14:21.147Z,12.93
2018-09-14T22:16:50.886Z,12.10
2018-09-14T22:19:20.536Z,12.17
2018-09-14T22:21:50.814Z,13.03
2018-09-14T22:24:20.508Z,12.07
2018-09-14T22:26:50.276Z,13.60
2018-09-14T22:29:19.979Z,13.50
2018-09-14T22:31:49.772Z,14.17
2018-09-14T22:34:19.514Z,13.23
2018-09-14T22:36:49.329Z,12.90
2018-09-14T22:39:19.705Z,13.63
2018-09-14T22:41:49.410Z,13.73
2018-09-14T22:44:23.990Z,13.23
2018-09-14T22:46:53.717Z,13.60
2018-09-14T22:49:23.497Z,12.73
2018-09-14T22:51:53.795Z,12.73
2018-09-14T22:54:23.635Z,12.57
2018-09-14T22:56:54.121Z,13.70
2018-09-14T22:59:23.868Z,12.97
2018-09-14T23:01:54.152Z,13.93
2018-09-14T23:04:23.899Z,13.13
2018-09-14T23:06:53.660Z,13.60
2018-09-14T23:09:23.511Z,13.57
2018-09-14T23:11:53.140Z,13.30
2018-09-14T23:14:22.885Z,13.27
2018-09-14T23:16:52.585Z,14.03
2018-09-14T23:19:22.341Z,13.03
2018-09-14T23:21:52.339Z,13.80
2018-09-14T23:24:22.285Z,13.77
2018-09-14T23:26:52.080Z,15.03
2018-09-14T23:29:21.787Z,14.17
2018-09-14T23:31:51.519Z,14.50
2018-09-14T23:34:21.388Z,14.07
2018-09-14T23:36:51.107Z,15.10
2018-09-14T23:39:21.048Z,14.03
2018-09-14T23:41:50.904Z,14.57
2018-09-14T23:44:20.867Z,13.93
2018-09-14T23:46:50.558Z,14.10
2018-09-14T23:49:20.511Z,14.87
2018-09-14T23:51:50.170Z,14.67
2018-09-14T23:54:20.113Z,14.17
2018-09-14T23:56:49.867Z,14.37
2018-09-14T23:59:19.685Z,14.97
